A- A+ FrançaisEnglishEspañol中国

Services sur Internet Soldes sur Internet Des idées de cadeaux Météo Météo aéro

La météo à : Autours de vous Tarbes-Lourdes-PyrénéesBasle-Mulhouse Morlaix-Ploujean Bastia Poretta

manche à air

La météo aéronautique pour les pilotes, la préparation du vol avec les METAR (METeorological Aerodrome Report, message d'observation des conditions météorologiques pour l'aviation) et Les TAF (Terminal Aerodrome Forecast : message de prévision à court terme des conditions météorologiques pour l'aviation). Et les autres ressources comme les VAC (Visual Approch Chart) et les NOTAM (Notice To Airman) pour préprer les vols.

Aéroport Tamanrasset (Algérie) / OACI DAAT/ IATA TMR

L'altitude de l'aéroport Tamanrasset est de 1377 m = 4518 ft. Il est situé à proximité de Tamanrasset (Algérie). La météo générale à 5 jours est disponible pour Wilaya d’ Illizi situé à 524.5 km.

METAR de l'aéroport Tamanrasset - DAAT

DAAT 100030Z 02004KT CAVOK 13/M12 Q1021

Décodage du METAR de l'aéroport Tamanrasset (DZ)

METAR émis par DAAT le mardi 10 décembre 2019 à 00:30 heure TU. Attention ce METAR est obsolète car il a été émis il y a 20 heure et 48 minutes.

La visibilité est de supérieure à 10 km = supérieure à 6.2 sm.

La température est de 13°C = 55 °F et le point rosée est de -12°C = 10 °F . Ce qui correspond à 16% d'humidité relative.

Le QNH est de 1021 hPa = 30.15 inHg

Vent de 4 kt = 7 km/h, orienté à 20°.

Pas de nuages.

TAF de l'aéroport Tamanrasset - DAAT

DAAT 092300Z 1000/1024 02005KT CAVOK

DAAT 092300Z 1000/1024 02005KT visibilité supérieure à 10km, aucun nuage à une hauteur inférieure à 5000 ft ou sous l'altitude minimale de secteur et aucun cumulonimbus ou cumulus bourgeonnant, quelle que soit leur altitude

Aéroport à proximité de Tamanrasset

Météo générale à 5 jours à Wilaya d’ Illizi (524.5 km)Aéroport In Guezzam (362 km)Aéroport Djanet Tiska (440 km)Aéroport Arlit (489 km)Aéroport Bordj Mokhtar (493 km)Aéroport Iferouane (518 km)Aéroport Illizi Illirane (540 km)

VAC de l'aéroport Tamanrasset - DAAT

La carte d'approche à vue (VAC Visual Approah Chart) est fournie sans aucune garantie de son actualité. Le pilote est le seul responsable de la vérification de sa validité avant de l'utiliser opérationnellement pour préparer un vol ou l'utiliser lors de sa navigation.

VAC de DAAT

Vue aérienne de l'aéroport Tamanrasset

NOTAM de l'aéroport Tamanrasset

Les NOTAM sont fournis sans aucune garantie de leur actualité. Le pilote est le seul responsable de la vérification de sa validité avant de l'utiliser opérationnellement pour préparer un vol ou l'utiliser lors de sa navigation.

Pas de NOTAM

Sources des données